createdAt,value
2018-12-05T00:00:00.356Z,3.83
2018-12-05T00:05:05.728Z,3.07
2018-12-05T00:10:11.352Z,3.70
2018-12-05T00:15:18.317Z,3.90
2018-12-05T00:20:23.610Z,3.87
2018-12-05T00:25:28.959Z,3.37
2018-12-05T00:30:34.058Z,3.10
2018-12-05T00:35:38.128Z,4.20
2018-12-05T00:40:43.558Z,3.30
2018-12-05T00:45:48.217Z,3.53
2018-12-05T00:50:51.929Z,3.80
2018-12-05T00:55:56.029Z,3.77
2018-12-05T01:01:02.553Z,4.03
2018-12-05T01:06:07.871Z,3.83
2018-12-05T01:11:15.657Z,3.57
2018-12-05T01:16:20.671Z,4.23
2018-12-05T01:21:25.134Z,4.90
2018-12-05T01:26:30.741Z,5.03
2018-12-05T01:31:34.650Z,4.00
2018-12-05T01:36:39.470Z,4.33
2018-12-05T01:41:51.630Z,4.17
2018-12-05T01:46:56.992Z,3.60
2018-12-05T01:52:00.848Z,4.07
2018-12-05T01:57:07.069Z,4.47
2018-12-05T02:02:10.959Z,5.00
2018-12-05T02:07:15.325Z,5.47
2018-12-05T02:12:21.290Z,5.70
2018-12-05T02:17:25.279Z,6.00
2018-12-05T02:22:31.115Z,5.87
2018-12-05T02:27:35.622Z,5.63
2018-12-05T02:32:40.397Z,6.20
2018-12-05T02:37:46.922Z,8.17
2018-12-05T02:42:51.187Z,6.53
2018-12-05T02:47:57.147Z,5.77
2018-12-05T02:53:01.835Z,5.20
2018-12-05T02:58:07.709Z,4.80
2018-12-05T03:03:12.662Z,5.27
2018-12-05T03:08:16.706Z,3.90
2018-12-05T03:13:22.108Z,4.77
2018-12-05T03:18:26.999Z,4.20
2018-12-05T03:23:32.279Z,3.80
2018-12-05T03:28:37.317Z,4.10
2018-12-05T03:33:41.362Z,3.20
2018-12-05T03:38:47.083Z,4.17
2018-12-05T03:43:51.255Z,4.03
2018-12-05T03:48:56.277Z,4.30
2018-12-05T03:54:01.890Z,4.27
2018-12-05T03:59:06.017Z,4.20
2018-12-05T04:04:12.965Z,4.07
2018-12-05T04:09:17.225Z,3.97
2018-12-05T04:14:21.532Z,3.50
2018-12-05T04:19:25.759Z,3.80
2018-12-05T04:24:29.561Z,3.40
2018-12-05T04:29:33.247Z,3.47
2018-12-05T04:34:37.261Z,3.77
2018-12-05T04:39:41.378Z,4.83
2018-12-05T04:44:45.487Z,4.60
2018-12-05T04:49:49.597Z,4.83
2018-12-05T04:54:53.752Z,5.37
2018-12-05T04:59:57.847Z,5.97
2018-12-05T05:05:03.107Z,5.20
2018-12-05T05:10:07.440Z,6.73
2018-12-05T05:15:13.391Z,6.13
2018-12-05T05:20:17.876Z,8.87
2018-12-05T05:25:22.436Z,12.50
2018-12-05T05:30:26.525Z,6.73
2018-12-05T05:35:31.304Z,7.27
2018-12-05T05:40:36.191Z,8.77
2018-12-05T05:45:41.030Z,8.77
2018-12-05T05:50:46.171Z,8.20
2018-12-05T05:55:50.219Z,7.87
2018-12-05T06:00:54.339Z,6.60
2018-12-05T06:05:58.431Z,10.03
2018-12-05T06:11:02.551Z,7.80
2018-12-05T06:16:06.662Z,7.20
2018-12-05T06:21:10.760Z,6.50
2018-12-05T06:26:14.854Z,6.70
2018-12-05T06:31:18.626Z,6.00
2018-12-05T06:36:22.323Z,7.30
2018-12-05T06:41:26.010Z,6.07
2018-12-05T06:46:29.722Z,6.57
2018-12-05T06:51:33.407Z,8.33
2018-12-05T06:56:37.540Z,9.30
2018-12-05T07:01:41.641Z,9.40
2018-12-05T07:06:46.489Z,8.33
2018-12-05T07:11:50.631Z,9.43
2018-12-05T07:16:54.719Z,7.60
2018-12-05T07:21:58.806Z,8.60
2018-12-05T07:27:02.894Z,9.80
2018-12-05T07:32:06.667Z,10.20
2018-12-05T07:37:10.346Z,11.57
2018-12-05T07:42:14.034Z,11.50
2018-12-05T07:47:17.721Z,8.93
2018-12-05T07:52:21.411Z,9.53
2018-12-05T07:57:25.098Z,11.23
2018-12-05T08:02:29.190Z,9.63
2018-12-05T08:07:32.954Z,11.27
2018-12-05T08:12:36.969Z,11.60
2018-12-05T08:17:41.047Z,12.57
2018-12-05T08:22:44.826Z,16.63
2018-12-05T08:27:48.512Z,12.27
2018-12-05T08:32:52.191Z,16.17
2018-12-05T08:37:55.907Z,11.73
2018-12-05T08:42:59.912Z,11.87
2018-12-05T08:48:03.856Z,11.73
2018-12-05T08:53:07.620Z,11.00
2018-12-05T08:58:11.294Z,16.20
2018-12-05T09:03:14.993Z,14.27
2018-12-05T09:08:18.783Z,12.53
2018-12-05T09:13:22.491Z,13.33
2018-12-05T09:18:26.278Z,14.97
2018-12-05T09:23:30.305Z,12.40
2018-12-05T09:28:34.177Z,14.30
2018-12-05T09:33:37.882Z,11.77
2018-12-05T09:38:41.606Z,11.67
2018-12-05T09:43:45.313Z,16.47
2018-12-05T09:48:49.427Z,13.53
2018-12-05T09:53:53.210Z,10.87
2018-12-05T09:58:56.923Z,13.10
2018-12-05T10:04:01.058Z,12.57
2018-12-05T10:09:06.045Z,13.07
2018-12-05T10:14:12.044Z,14.67
2018-12-05T10:19:15.902Z,15.47
2018-12-05T10:24:20.582Z,16.00
2018-12-05T10:29:24.490Z,15.30
2018-12-05T10:34:28.186Z,14.10
2018-12-05T10:39:31.888Z,15.80
2018-12-05T10:44:35.714Z,12.97
2018-12-05T10:49:39.438Z,11.67
2018-12-05T10:54:43.125Z,11.77
2018-12-05T10:59:46.831Z,13.07
2018-12-05T11:04:55.906Z,10.43
2018-12-05T11:10:05.047Z,11.57
2018-12-05T11:15:14.070Z,10.87
2018-12-05T11:21:24.987Z,10.60
2018-12-05T11:26:30.990Z,9.23
2018-12-05T11:31:34.686Z,8.00
2018-12-05T11:36:39.943Z,9.07
2018-12-05T11:41:44.167Z,7.33
2018-12-05T11:46:48.602Z,7.77
2018-12-05T11:51:52.953Z,7.10
2018-12-05T11:56:56.849Z,7.93
2018-12-05T12:02:00.546Z,7.10
2018-12-05T12:07:04.253Z,7.40
2018-12-05T12:12:12.262Z,7.30
2018-12-05T12:17:15.939Z,6.23
2018-12-05T12:22:19.671Z,6.77
2018-12-05T12:27:23.366Z,6.10
2018-12-05T12:32:27.086Z,5.80
2018-12-05T12:37:31.101Z,6.20
2018-12-05T12:42:34.902Z,6.73
2018-12-05T12:47:38.918Z,5.93
2018-12-05T12:52:43.010Z,6.27
2018-12-05T12:57:46.778Z,5.90
2018-12-05T13:02:50.479Z,6.33
2018-12-05T13:07:54.163Z,5.77
2018-12-05T13:12:58.187Z,5.43
2018-12-05T13:18:01.971Z,5.73
2018-12-05T13:23:05.670Z,5.60
2018-12-05T13:28:10.347Z,5.57
2018-12-05T13:33:14.043Z,7.17
2018-12-05T13:38:17.728Z,7.10
2018-12-05T13:43:21.852Z,6.77
2018-12-05T13:48:25.948Z,6.20
2018-12-05T13:53:30.102Z,6.63
2018-12-05T13:58:34.122Z,6.90
2018-12-05T14:03:37.835Z,6.17
2018-12-05T14:08:41.662Z,6.27
2018-12-05T14:13:45.466Z,5.77
2018-12-05T14:18:49.195Z,5.60
2018-12-05T14:23:53.281Z,5.13
2018-12-05T14:28:57.610Z,4.37
2018-12-05T14:34:01.559Z,4.40
2018-12-05T14:39:06.790Z,4.83
2018-12-05T14:44:11.730Z,4.23
2018-12-05T14:49:16.689Z,4.07
2018-12-05T14:54:22.586Z,4.17
2018-12-05T14:59:26.402Z,5.30
2018-12-05T15:04:31.478Z,4.10
2018-12-05T15:09:35.845Z,4.80
2018-12-05T15:14:39.721Z,4.90
2018-12-05T15:19:44.038Z,4.27
2018-12-05T15:24:50.653Z,5.33
2018-12-05T15:29:54.469Z,4.80
2018-12-05T15:34:59.636Z,4.40
2018-12-05T15:40:04.117Z,4.50
2018-12-05T15:45:08.517Z,4.77
2018-12-05T15:50:13.902Z,4.70
2018-12-05T15:55:17.732Z,4.30
2018-12-05T16:00:22.654Z,3.97
2018-12-05T16:05:27.609Z,4.10
2018-12-05T16:10:31.602Z,3.93
2018-12-05T16:15:36.031Z,4.33
2018-12-05T16:20:40.464Z,4.20
2018-12-05T16:25:44.464Z,3.77
2018-12-05T16:30:48.347Z,4.70
2018-12-05T16:35:52.333Z,4.27
2018-12-05T16:40:56.375Z,6.80
2018-12-05T16:46:00.507Z,6.40
2018-12-05T16:51:04.382Z,5.20
2018-12-05T16:56:08.191Z,4.23
2018-12-05T17:01:11.895Z,5.40
2018-12-05T17:06:15.595Z,4.97
2018-12-05T17:11:19.807Z,4.70
2018-12-05T17:16:23.574Z,5.43
2018-12-05T17:21:27.448Z,5.33
2018-12-05T17:26:31.333Z,5.83
2018-12-05T17:31:36.513Z,5.27
2018-12-05T17:36:40.434Z,5.67
2018-12-05T17:41:44.505Z,5.70
2018-12-05T17:46:48.873Z,6.13
2018-12-05T17:51:52.693Z,6.07
2018-12-05T17:56:56.459Z,7.20
2018-12-05T18:02:00.200Z,6.70
2018-12-05T18:07:04.105Z,7.43
2018-12-05T18:12:08.038Z,8.23
2018-12-05T18:17:11.743Z,7.03
2018-12-05T18:22:15.469Z,6.87
2018-12-05T18:27:19.459Z,7.60
2018-12-05T18:32:23.555Z,7.03
2018-12-05T18:37:27.333Z,9.37
2018-12-05T18:42:31.024Z,7.77
2018-12-05T18:47:34.946Z,5.87
2018-12-05T18:52:38.639Z,6.50
2018-12-05T18:57:42.409Z,5.20
2018-12-05T19:02:46.122Z,4.23
2018-12-05T19:07:50.162Z,5.80
2018-12-05T19:12:54.602Z,5.70
2018-12-05T19:17:58.867Z,5.03
2018-12-05T19:23:02.590Z,4.97
2018-12-05T19:28:07.087Z,5.33
2018-12-05T19:33:11.008Z,5.13
2018-12-05T19:38:14.898Z,5.53
2018-12-05T19:43:18.590Z,5.33
2018-12-05T19:48:22.377Z,5.27
2018-12-05T19:53:26.278Z,4.97
2018-12-05T19:58:30.254Z,5.30
2018-12-05T20:03:33.930Z,5.03
2018-12-05T20:08:38.019Z,4.60
2018-12-05T20:13:41.734Z,4.40
2018-12-05T20:18:45.430Z,5.60
2018-12-05T20:23:49.174Z,4.53
2018-12-05T20:28:53.291Z,4.37
2018-12-05T20:33:57.135Z,4.60
2018-12-05T20:39:00.833Z,4.80
2018-12-05T20:44:05.734Z,4.17
2018-12-05T20:49:09.410Z,3.80
2018-12-05T20:54:13.126Z,4.40
2018-12-05T20:59:17.155Z,6.07
2018-12-05T21:04:21.139Z,4.77
2018-12-05T21:09:24.927Z,4.60
2018-12-05T21:14:28.646Z,3.90
2018-12-05T21:19:32.386Z,3.63
2018-12-05T21:24:36.369Z,3.77
2018-12-05T21:29:40.402Z,3.40
2018-12-05T21:34:44.174Z,3.40
2018-12-05T21:39:47.855Z,3.40
2018-12-05T21:44:52.307Z,2.70
2018-12-05T21:49:56.106Z,2.83
2018-12-05T21:54:59.815Z,3.37
2018-12-05T22:00:04.238Z,3.60
2018-12-05T22:05:09.953Z,3.60
2018-12-05T22:10:13.664Z,3.17
2018-12-05T22:15:17.365Z,3.27
2018-12-05T22:20:21.252Z,3.33
2018-12-05T22:25:24.952Z,3.63
2018-12-05T22:30:28.832Z,2.50
2018-12-05T22:35:32.992Z,2.77
2018-12-05T22:40:36.779Z,2.40
2018-12-05T22:45:40.598Z,2.67
2018-12-05T22:50:44.312Z,2.37
2018-12-05T22:55:48.009Z,2.40
2018-12-05T23:00:53.329Z,2.40
2018-12-05T23:05:57.979Z,1.97
2018-12-05T23:11:02.133Z,2.17
2018-12-05T23:16:07.094Z,2.50
2018-12-05T23:21:12.299Z,2.57
2018-12-05T23:26:18.783Z,2.33
2018-12-05T23:31:26.000Z,2.23
2018-12-05T23:36:32.315Z,2.33
2018-12-05T23:41:38.344Z,2.70
2018-12-05T23:46:44.044Z,2.40
2018-12-05T23:51:49.511Z,2.27
2018-12-05T23:56:53.714Z,2.50
